createdAt,value
2018-02-14T00:02:06.937Z,-3.00
2018-02-14T00:04:34.397Z,-3.10
2018-02-14T00:07:01.870Z,-3.20
2018-02-14T00:09:29.326Z,-3.20
2018-02-14T00:11:56.794Z,-3.40
2018-02-14T00:14:24.279Z,-3.40
2018-02-14T00:16:52.514Z,-3.50
2018-02-14T00:19:19.987Z,-3.50
2018-02-14T00:21:47.461Z,-3.50
2018-02-14T00:24:15.707Z,-3.70
2018-02-14T00:26:43.204Z,-3.70
2018-02-14T00:29:11.450Z,-3.90
2018-02-14T00:31:38.914Z,-3.90
2018-02-14T00:34:06.413Z,-3.70
2018-02-14T00:36:33.898Z,-3.90
2018-02-14T00:39:01.403Z,-4.00
2018-02-14T00:41:28.858Z,-4.10
2018-02-14T00:43:56.341Z,-4.10
2018-02-14T00:46:24.592Z,-4.20
2018-02-14T00:48:52.066Z,-4.20
2018-02-14T00:51:20.585Z,-4.20
2018-02-14T00:53:48.061Z,-4.20
2018-02-14T00:56:15.542Z,-4.20
2018-02-14T00:58:43.003Z,-4.20
2018-02-14T01:01:10.478Z,-4.10
2018-02-14T01:03:37.986Z,-4.00
2018-02-14T01:06:05.463Z,-3.90
2018-02-14T01:08:32.944Z,-3.70
2018-02-14T01:11:00.413Z,-3.70
2018-02-14T01:13:28.675Z,-3.80
2018-02-14T01:15:56.150Z,-3.80
2018-02-14T01:18:24.458Z,-3.80
2018-02-14T01:20:51.922Z,-3.80
2018-02-14T01:23:19.396Z,-3.80
2018-02-14T01:25:46.880Z,-3.80
2018-02-14T01:28:14.337Z,-3.80
2018-02-14T01:30:41.822Z,-3.70
2018-02-14T01:33:10.053Z,-3.70
2018-02-14T01:35:37.562Z,-3.70
2018-02-14T01:38:05.041Z,-3.70
2018-02-14T01:40:32.508Z,-3.70
2018-02-14T01:42:59.991Z,-3.80
2018-02-14T01:45:27.489Z,-3.70
2018-02-14T01:47:55.754Z,-3.70
2018-02-14T01:53:17.556Z,-3.90
2018-02-14T01:55:45.043Z,-4.10
2018-02-14T01:58:12.545Z,-4.10
2018-02-14T02:00:40.037Z,-3.90
2018-02-14T02:03:07.509Z,-3.90
2018-02-14T02:05:34.995Z,-3.90
2018-02-14T02:08:03.256Z,-3.90
2018-02-14T02:10:31.115Z,-3.90
2018-02-14T02:12:58.609Z,-3.80
2018-02-14T02:15:26.099Z,-3.80
2018-02-14T02:17:53.598Z,-3.70
2018-02-14T02:20:21.091Z,-3.70
2018-02-14T02:22:49.337Z,-4.10
2018-02-14T02:25:16.822Z,-4.20
2018-02-14T02:27:45.091Z,-4.60
2018-02-14T02:30:13.346Z,-4.70
2018-02-14T02:32:40.882Z,-4.70
2018-02-14T02:35:08.350Z,-4.80
2018-02-14T02:37:35.835Z,-5.00
2018-02-14T02:40:16.032Z,-4.90
2018-02-14T02:42:43.509Z,-4.90
2018-02-14T02:45:11.005Z,-4.70
2018-02-14T02:47:38.503Z,-4.40
2018-02-14T02:50:06.034Z,-4.30
2018-02-14T02:52:33.519Z,-4.10
2018-02-14T02:55:01.011Z,-4.10
2018-02-14T02:57:28.505Z,-4.40
2018-02-14T02:59:55.986Z,-4.60
2018-02-14T03:02:24.243Z,-4.70
2018-02-14T03:04:51.737Z,-4.80
2018-02-14T03:07:19.224Z,-4.80
2018-02-14T03:09:46.701Z,-5.00
2018-02-14T03:12:14.189Z,-5.00
2018-02-14T03:14:42.429Z,-4.90
2018-02-14T03:17:09.925Z,-4.90
2018-02-14T03:19:38.177Z,-4.90
2018-02-14T03:22:05.698Z,-4.90
2018-02-14T03:24:33.181Z,-4.80
2018-02-14T03:27:00.688Z,-4.70
2018-02-14T03:29:28.923Z,-4.80
2018-02-14T03:31:56.405Z,-4.90
2018-02-14T03:34:24.659Z,-5.00
2018-02-14T03:36:53.657Z,-5.10
2018-02-14T03:39:21.137Z,-5.10
2018-02-14T03:41:49.389Z,-5.10
2018-02-14T03:44:16.861Z,-5.10
2018-02-14T03:46:45.138Z,-5.10
2018-02-14T03:49:12.610Z,-5.10
2018-02-14T03:51:40.938Z,-5.30
2018-02-14T03:54:08.411Z,-5.40
2018-02-14T03:56:35.894Z,-5.30
2018-02-14T03:59:03.377Z,-5.30
2018-02-14T04:01:30.855Z,-5.30
2018-02-14T04:03:58.342Z,-5.40
2018-02-14T04:06:25.832Z,-5.50
2018-02-14T04:08:54.089Z,-5.40
2018-02-14T04:11:21.568Z,-5.50
2018-02-14T04:13:49.851Z,-5.60
2018-02-14T04:16:18.091Z,-5.70
2018-02-14T04:18:45.616Z,-5.70
2018-02-14T04:21:13.107Z,-5.70
2018-02-14T04:23:40.620Z,-5.70
2018-02-14T04:26:08.114Z,-5.70
2018-02-14T04:28:35.606Z,-5.80
2018-02-14T04:31:03.090Z,-5.80
2018-02-14T04:33:31.357Z,-5.90
2018-02-14T04:35:59.621Z,-6.00
2018-02-14T04:38:28.073Z,-6.00
2018-02-14T04:40:55.565Z,-6.10
2018-02-14T04:43:23.831Z,-6.30
2018-02-14T04:45:51.341Z,-6.30
2018-02-14T04:48:18.817Z,-6.30
2018-02-14T04:50:46.298Z,-6.00
2018-02-14T04:53:13.778Z,-5.80
2018-02-14T04:55:42.022Z,-5.50
2018-02-14T04:58:09.517Z,-5.60
2018-02-14T05:00:37.805Z,-5.60
2018-02-14T05:03:06.054Z,-5.40
2018-02-14T05:05:33.542Z,-5.40
2018-02-14T05:08:01.048Z,-5.20
2018-02-14T05:10:28.531Z,-5.10
2018-02-14T05:12:56.258Z,-5.10
2018-02-14T05:15:25.062Z,-5.00
2018-02-14T05:17:52.558Z,-5.00
2018-02-14T05:20:20.822Z,-4.80
2018-02-14T05:22:48.314Z,-4.80
2018-02-14T05:25:15.845Z,-4.70
2018-02-14T05:27:44.170Z,-4.90
2018-02-14T05:30:11.661Z,-4.90
2018-02-14T05:32:39.191Z,-4.90
2018-02-14T05:35:06.696Z,-4.90
2018-02-14T05:37:34.202Z,-4.90
2018-02-14T05:40:02.637Z,-5.00
2018-02-14T05:42:30.138Z,-5.10
2018-02-14T05:44:58.370Z,-4.90
2018-02-14T05:47:25.918Z,-4.90
2018-02-14T05:49:53.390Z,-5.00
2018-02-14T05:52:20.894Z,-5.00
2018-02-14T05:54:48.376Z,-4.90
2018-02-14T05:57:16.253Z,-4.80
2018-02-14T05:59:43.730Z,-4.70
2018-02-14T06:02:11.229Z,-4.80
2018-02-14T06:04:38.728Z,-4.80
2018-02-14T06:07:06.201Z,-4.80
2018-02-14T06:09:33.716Z,-4.90
2018-02-14T06:12:01.196Z,-5.00
2018-02-14T06:14:28.690Z,-5.10
2018-02-14T06:16:56.941Z,-5.20
2018-02-14T06:19:24.425Z,-5.20
2018-02-14T06:21:51.933Z,-5.10
2018-02-14T06:24:19.438Z,-5.10
2018-02-14T06:26:46.959Z,-5.20
2018-02-14T06:29:14.475Z,-5.20
2018-02-14T06:31:42.726Z,-5.10
2018-02-14T06:34:10.218Z,-5.20
2018-02-14T06:36:38.466Z,-5.30
2018-02-14T06:39:07.466Z,-5.20
2018-02-14T06:41:35.015Z,-5.20
2018-02-14T06:44:02.537Z,-5.10
2018-02-14T06:46:30.030Z,-5.10
2018-02-14T06:48:57.543Z,-5.20
2018-02-14T06:51:25.024Z,-5.20
2018-02-14T06:53:52.510Z,-5.30
2018-02-14T06:56:20.108Z,-5.30
2018-02-14T06:58:47.713Z,-5.30
2018-02-14T07:01:15.199Z,-5.30
2018-02-14T07:03:42.679Z,-5.40
2018-02-14T07:06:10.959Z,-5.30
2018-02-14T07:08:39.208Z,-5.30
2018-02-14T07:11:06.698Z,-5.30
2018-02-14T07:13:34.945Z,-5.50
2018-02-14T07:16:02.459Z,-5.50
2018-02-14T07:18:29.950Z,-5.50
2018-02-14T07:20:57.431Z,-5.40
2018-02-14T07:23:30.931Z,-5.40
2018-02-14T07:25:59.174Z,-5.40
2018-02-14T07:28:26.689Z,-5.40
2018-02-14T07:30:54.177Z,-5.50
2018-02-14T07:33:21.658Z,-5.50
2018-02-14T07:35:49.154Z,-5.30
2018-02-14T07:38:17.438Z,-5.20
2018-02-14T07:40:45.682Z,-5.20
2018-02-14T07:43:13.163Z,-5.20
2018-02-14T07:45:41.446Z,-5.00
2018-02-14T07:48:09.702Z,-5.00
2018-02-14T07:50:37.189Z,-5.00
2018-02-14T07:53:04.681Z,-4.90
2018-02-14T07:55:32.193Z,-4.80
2018-02-14T07:57:59.678Z,-4.60
2018-02-14T08:00:27.162Z,-4.40
2018-02-14T08:02:54.648Z,-4.30
2018-02-14T08:05:22.138Z,-4.10
2018-02-14T08:07:50.384Z,-3.80
2018-02-14T08:10:17.899Z,-3.80
2018-02-14T08:12:45.495Z,-3.40
2018-02-14T08:15:12.986Z,-2.40
2018-02-14T08:17:41.239Z,1.00
2018-02-14T08:20:08.750Z,1.00
2018-02-14T08:22:36.254Z,2.50
2018-02-14T08:25:03.740Z,3.70
2018-02-14T08:27:31.979Z,5.10
2018-02-14T08:29:59.474Z,5.10
2018-02-14T08:32:27.705Z,5.80
2018-02-14T08:34:55.193Z,5.80
2018-02-14T08:37:22.688Z,6.70
2018-02-14T08:39:50.184Z,7.20
2018-02-14T08:42:17.651Z,7.40
2018-02-14T08:44:45.149Z,8.10
2018-02-14T08:47:13.640Z,8.70
2018-02-14T08:49:41.148Z,8.70
2018-02-14T08:52:08.650Z,9.20
2018-02-14T08:54:36.890Z,9.50
2018-02-14T08:57:04.380Z,9.50
2018-02-14T08:59:32.636Z,10.00
2018-02-14T09:02:00.179Z,10.00
2018-02-14T09:04:27.651Z,10.00
2018-02-14T09:06:55.162Z,9.60
2018-02-14T09:09:22.633Z,9.90
2018-02-14T09:11:50.156Z,10.20
2018-02-14T09:14:18.693Z,9.80
2018-02-14T09:16:46.180Z,9.80
2018-02-14T09:19:13.729Z,10.00
2018-02-14T09:21:41.257Z,10.30
2018-02-14T09:24:08.767Z,10.50
2018-02-14T09:26:36.529Z,11.00
2018-02-14T09:29:04.026Z,10.80
2018-02-14T09:31:31.520Z,11.20
2018-02-14T09:33:59.038Z,11.00
2018-02-14T09:36:26.587Z,11.50
2018-02-14T09:38:54.847Z,12.40
2018-02-14T09:41:23.194Z,13.60
2018-02-14T09:43:50.894Z,13.50
2018-02-14T09:46:19.392Z,13.10
2018-02-14T09:48:47.644Z,13.80
2018-02-14T09:51:15.339Z,13.80
2018-02-14T09:53:42.818Z,12.90
2018-02-14T09:56:10.360Z,13.90
2018-02-14T09:58:38.010Z,14.10
2018-02-14T10:01:05.522Z,14.20
2018-02-14T10:03:33.040Z,14.40
2018-02-14T10:06:00.658Z,14.30
2018-02-14T10:08:28.147Z,14.50
2018-02-14T10:10:56.398Z,13.30
2018-02-14T10:13:23.929Z,13.20
2018-02-14T10:15:51.517Z,13.80
2018-02-14T10:18:38.855Z,13.30
2018-02-14T10:21:06.362Z,14.30
2018-02-14T10:23:34.043Z,13.30
2018-02-14T10:26:01.966Z,14.20
2018-02-14T10:28:29.560Z,14.80
2018-02-14T10:30:57.066Z,14.20
2018-02-14T10:33:24.642Z,13.40
2018-02-14T10:35:52.122Z,12.80
2018-02-14T10:38:19.602Z,11.80
2018-02-14T10:40:47.085Z,12.20
2018-02-14T10:43:14.583Z,12.30
2018-02-14T10:45:42.079Z,12.60
2018-02-14T10:48:09.772Z,12.90
2018-02-14T10:50:37.339Z,12.40
2018-02-14T10:53:04.845Z,12.40
2018-02-14T10:55:32.915Z,12.40
2018-02-14T10:58:02.459Z,12.60
2018-02-14T11:17:59.522Z,12.00
2018-02-14T11:20:26.993Z,11.60
2018-02-14T11:22:54.453Z,11.10
2018-02-14T11:25:21.908Z,11.00
2018-02-14T11:27:49.368Z,11.50
2018-02-14T11:30:16.849Z,11.70
2018-02-14T11:32:45.077Z,11.70
2018-02-14T11:35:15.048Z,11.60
2018-02-14T11:37:42.509Z,11.10
2018-02-14T11:40:10.421Z,11.70
2018-02-14T11:42:37.860Z,11.30
2018-02-14T11:45:05.325Z,10.90
2018-02-14T11:47:32.767Z,11.00
2018-02-14T11:50:00.271Z,10.70
2018-02-14T11:52:29.232Z,10.50
2018-02-14T11:54:57.501Z,10.70
2018-02-14T11:57:26.908Z,10.70
2018-02-14T11:59:54.393Z,11.30
2018-02-14T12:02:21.867Z,10.70
2018-02-14T12:04:50.075Z,10.70
2018-02-14T12:07:17.584Z,10.70
2018-02-14T12:09:45.070Z,11.50
2018-02-14T12:12:13.646Z,11.90
2018-02-14T12:14:41.871Z,12.60
2018-02-14T12:17:09.376Z,12.60
2018-02-14T12:19:38.046Z,11.00
2018-02-14T12:22:10.498Z,11.00
2018-02-14T12:24:37.954Z,9.70
2018-02-14T12:27:05.437Z,8.70
2018-02-14T12:29:33.799Z,7.90
2018-02-14T12:32:01.261Z,7.70
2018-02-14T12:34:30.356Z,7.40
2018-02-14T12:37:02.680Z,7.40
2018-02-14T12:39:30.212Z,7.50
2018-02-14T12:41:57.673Z,8.00
2018-02-14T12:44:25.157Z,8.40
2018-02-14T12:46:52.606Z,8.30
2018-02-14T12:49:20.065Z,8.20
2018-02-14T12:51:48.353Z,7.90
2018-02-14T12:54:15.803Z,7.70
2018-02-14T12:56:43.252Z,7.70
2018-02-14T12:59:10.705Z,7.40
2018-02-14T13:01:38.203Z,7.20
2018-02-14T13:04:05.665Z,6.90
2018-02-14T13:06:33.158Z,6.80
2018-02-14T13:09:00.580Z,6.70
2018-02-14T13:11:28.041Z,6.60
2018-02-14T13:13:55.504Z,6.70
2018-02-14T13:16:22.980Z,6.70
2018-02-14T13:18:51.919Z,6.60
2018-02-14T13:21:19.401Z,6.60
2018-02-14T13:23:46.861Z,6.50
2018-02-14T13:26:14.302Z,6.50
2018-02-14T13:28:41.764Z,6.30
2018-02-14T13:31:09.244Z,6.50
2018-02-14T13:33:37.481Z,6.40
2018-02-14T13:36:04.933Z,6.40
2018-02-14T13:38:32.387Z,6.30
2018-02-14T13:40:59.872Z,6.20
2018-02-14T13:43:27.325Z,6.20
2018-02-14T13:45:54.815Z,6.10
2018-02-14T13:48:23.025Z,6.30
2018-02-14T13:50:50.495Z,6.30
2018-02-14T13:53:17.951Z,6.30
2018-02-14T13:55:45.404Z,6.30
2018-02-14T13:58:12.872Z,6.40
2018-02-14T14:00:40.332Z,6.20
2018-02-14T14:03:07.822Z,6.20
2018-02-14T14:05:35.298Z,6.30
2018-02-14T14:08:02.740Z,6.40
2018-02-14T14:10:30.225Z,6.30
2018-02-14T14:12:57.688Z,6.30
2018-02-14T14:15:25.165Z,6.30
2018-02-14T14:17:52.617Z,6.20
2018-02-14T14:20:20.098Z,6.30
2018-02-14T14:22:47.587Z,6.30
2018-02-14T14:25:15.521Z,6.20
2018-02-14T14:27:43.036Z,6.10
2018-02-14T14:30:10.495Z,6.20
2018-02-14T14:32:37.971Z,6.20
2018-02-14T14:35:06.214Z,6.10
2018-02-14T14:37:33.723Z,6.10
2018-02-14T14:40:01.947Z,6.10
2018-02-14T14:42:29.410Z,6.10
2018-02-14T14:44:56.901Z,6.20
2018-02-14T14:47:25.146Z,6.20
2018-02-14T14:49:52.628Z,6.10
2018-02-14T14:52:20.273Z,6.10
2018-02-14T14:54:47.805Z,6.00
2018-02-14T14:57:15.274Z,5.90
2018-02-14T14:59:42.734Z,5.90
2018-02-14T15:02:10.200Z,5.80
2018-02-14T15:04:37.715Z,5.70
2018-02-14T15:07:05.191Z,5.50
2018-02-14T15:09:32.766Z,5.40
2018-02-14T15:12:02.098Z,5.50
2018-02-14T15:14:29.564Z,5.50
2018-02-14T15:16:57.066Z,5.40
2018-02-14T15:19:24.573Z,5.40
2018-02-14T15:21:52.071Z,5.40
2018-02-14T15:24:19.557Z,5.50
2018-02-14T15:26:47.198Z,5.50
2018-02-14T15:29:14.708Z,5.50
2018-02-14T15:31:42.171Z,5.40
2018-02-14T15:34:09.626Z,5.30
2018-02-14T15:36:37.157Z,5.20
2018-02-14T15:39:06.980Z,5.00
2018-02-14T15:41:34.490Z,5.00
2018-02-14T15:44:02.732Z,5.00
2018-02-14T15:46:30.210Z,5.00
2018-02-14T15:48:58.448Z,4.80
2018-02-14T15:51:25.926Z,4.80
2018-02-14T15:53:53.382Z,4.60
2018-02-14T15:56:22.380Z,4.50
2018-02-14T15:58:49.835Z,4.50
2018-02-14T16:01:17.293Z,4.50
2018-02-14T16:03:44.776Z,4.40
2018-02-14T16:06:13.062Z,4.30
2018-02-14T16:08:41.314Z,4.30
2018-02-14T16:11:09.757Z,4.30
2018-02-14T16:13:37.225Z,4.30
2018-02-14T16:16:04.681Z,4.30
2018-02-14T16:18:32.221Z,4.20
2018-02-14T16:20:59.697Z,4.10
2018-02-14T16:23:28.061Z,4.00
2018-02-14T16:25:55.525Z,4.00
2018-02-14T16:28:22.997Z,3.90
2018-02-14T16:30:50.541Z,3.80
2018-02-14T16:33:18.013Z,3.70
2018-02-14T16:35:45.486Z,3.70
2018-02-14T16:38:13.004Z,3.60
2018-02-14T16:40:40.468Z,3.60
2018-02-14T16:43:07.936Z,3.50
2018-02-14T16:45:35.423Z,3.40
2018-02-14T16:48:02.936Z,3.30
2018-02-14T16:50:30.943Z,3.20
2018-02-14T16:52:58.406Z,3.10
2018-02-14T16:55:25.874Z,3.10
2018-02-14T16:57:53.350Z,3.00
2018-02-14T17:00:21.616Z,2.90
2018-02-14T17:02:49.071Z,2.90
2018-02-14T17:05:16.526Z,2.90
2018-02-14T17:07:44.014Z,2.90
2018-02-14T17:10:12.246Z,2.80
2018-02-14T17:12:40.314Z,2.80
2018-02-14T17:15:08.604Z,2.70
2018-02-14T17:17:36.084Z,2.60
2018-02-14T17:20:04.330Z,2.60
2018-02-14T17:22:31.799Z,2.60
2018-02-14T17:24:59.257Z,2.50
2018-02-14T17:27:26.733Z,2.50
2018-02-14T17:29:54.210Z,2.50
2018-02-14T17:32:22.439Z,2.30
2018-02-14T17:34:49.900Z,2.40
2018-02-14T17:37:17.370Z,2.30
2018-02-14T17:39:44.840Z,2.30
2018-02-14T17:42:12.357Z,2.30
2018-02-14T17:44:39.848Z,2.30
2018-02-14T17:47:07.351Z,2.20
2018-02-14T17:49:34.816Z,2.10
2018-02-14T17:52:02.288Z,2.10
2018-02-14T17:54:29.789Z,2.10
2018-02-14T17:56:57.251Z,2.00
2018-02-14T17:59:25.533Z,2.00
2018-02-14T18:01:53.172Z,2.00
2018-02-14T18:04:20.710Z,2.00
2018-02-14T18:06:48.164Z,2.00
2018-02-14T18:09:15.646Z,2.00
2018-02-14T18:11:43.114Z,2.00
2018-02-14T18:14:10.590Z,2.10
2018-02-14T18:16:38.042Z,2.10
2018-02-14T18:19:05.563Z,2.10
2018-02-14T18:21:33.021Z,2.10
2018-02-14T18:24:00.486Z,2.10
2018-02-14T18:26:28.009Z,2.10
2018-02-14T18:28:55.476Z,2.10
2018-02-14T18:31:23.002Z,2.10
2018-02-14T18:33:51.334Z,2.00
2018-02-14T18:36:18.793Z,2.00
2018-02-14T18:38:46.267Z,2.10
2018-02-14T18:41:13.773Z,2.00
2018-02-14T18:43:41.268Z,2.00
2018-02-14T18:46:08.842Z,2.00
2018-02-14T18:48:36.315Z,2.00
2018-02-14T18:51:03.783Z,2.00
2018-02-14T18:53:31.253Z,2.00
2018-02-14T18:55:59.512Z,1.90
2018-02-14T18:58:26.978Z,1.90
2018-02-14T19:00:55.335Z,1.90
2018-02-14T19:03:22.828Z,1.90
2018-02-14T19:05:51.048Z,1.90
2018-02-14T19:08:18.545Z,1.90
2018-02-14T19:10:46.821Z,1.90
2018-02-14T19:13:14.435Z,1.90
2018-02-14T19:15:41.901Z,1.80
2018-02-14T19:18:09.379Z,1.80
2018-02-14T19:20:36.895Z,1.80
2018-02-14T19:23:04.370Z,1.80
2018-02-14T19:25:34.660Z,1.80
2018-02-14T19:28:02.652Z,1.70
2018-02-14T19:30:32.640Z,1.70
2018-02-14T19:33:00.199Z,1.70
2018-02-14T19:35:28.679Z,1.60
2018-02-14T19:37:56.314Z,1.60
2018-02-14T19:40:23.841Z,1.60
2018-02-14T19:42:58.612Z,1.70
2018-02-14T19:45:27.093Z,1.70
2018-02-14T19:47:54.565Z,1.60
2018-02-14T19:50:22.062Z,1.70
2018-02-14T19:52:49.564Z,1.90
2018-02-14T19:55:17.111Z,1.90
2018-02-14T19:57:44.579Z,1.90
2018-02-14T20:00:12.090Z,1.90
2018-02-14T20:02:40.344Z,1.90
2018-02-14T20:05:08.823Z,1.90
2018-02-14T20:07:36.366Z,1.90
2018-02-14T20:10:03.838Z,1.90
2018-02-14T20:12:31.464Z,1.90
2018-02-14T20:14:58.941Z,1.90
2018-02-14T20:17:26.410Z,2.00
2018-02-14T20:19:53.929Z,2.00
2018-02-14T20:22:21.394Z,2.10
2018-02-14T20:24:48.883Z,2.20
2018-02-14T20:27:17.270Z,2.40
2018-02-14T20:29:44.814Z,2.30
2018-02-14T20:32:12.369Z,2.40
2018-02-14T20:34:39.829Z,2.50
2018-02-14T20:37:07.359Z,2.50
2018-02-14T20:39:34.822Z,2.60
2018-02-14T20:42:02.317Z,2.60
2018-02-14T20:44:29.775Z,2.60
2018-02-14T20:46:57.928Z,2.60
2018-02-14T20:49:25.435Z,2.60
2018-02-14T20:51:52.910Z,2.60
2018-02-14T20:54:20.404Z,2.70
2018-02-14T20:56:48.638Z,2.70
2018-02-14T20:59:16.105Z,2.60
2018-02-14T21:01:43.597Z,2.60
2018-02-14T21:04:11.856Z,2.70
2018-02-14T21:06:39.396Z,2.70
2018-02-14T21:09:06.882Z,2.70
2018-02-14T21:11:34.378Z,2.70
2018-02-14T21:14:01.855Z,2.60
2018-02-14T21:16:29.331Z,2.60
2018-02-14T21:18:57.101Z,2.60
2018-02-14T21:21:24.566Z,2.60
2018-02-14T21:23:52.320Z,2.60
2018-02-14T21:26:19.777Z,2.60
2018-02-14T21:28:47.259Z,2.60
2018-02-14T21:31:14.733Z,2.60
2018-02-14T21:33:43.084Z,2.60
2018-02-14T21:36:10.542Z,2.60
2018-02-14T21:38:38.029Z,2.60
2018-02-14T21:41:06.246Z,2.70
2018-02-14T21:43:33.710Z,2.60
2018-02-14T21:46:01.190Z,2.70
2018-02-14T21:48:28.650Z,2.70
2018-02-14T21:50:56.120Z,2.70
2018-02-14T21:53:23.581Z,2.60
2018-02-14T21:55:51.817Z,2.70
2018-02-14T21:58:20.095Z,2.70
2018-02-14T22:00:47.570Z,2.80
2018-02-14T22:03:15.039Z,2.90
2018-02-14T22:05:42.530Z,3.00
2018-02-14T22:08:09.990Z,3.10
2018-02-14T22:10:37.484Z,3.20
2018-02-14T22:13:05.085Z,3.20
2018-02-14T22:15:32.547Z,3.20
2018-02-14T22:18:00.017Z,3.30
2018-02-14T22:20:28.263Z,3.40
2018-02-14T22:22:56.510Z,3.40
2018-02-14T22:25:23.995Z,3.40
2018-02-14T22:27:51.510Z,3.40
2018-02-14T22:30:18.973Z,3.40
2018-02-14T22:32:46.443Z,3.30
2018-02-14T22:35:13.894Z,3.30
2018-02-14T22:37:41.362Z,3.30
2018-02-14T22:40:08.814Z,3.30
2018-02-14T22:42:36.321Z,3.30
2018-02-14T22:45:03.785Z,3.30
2018-02-14T22:47:32.009Z,3.20
2018-02-14T22:49:59.475Z,3.20
2018-02-14T22:52:26.945Z,3.20
2018-02-14T22:54:57.255Z,3.20
2018-02-14T22:57:25.097Z,3.10
2018-02-14T22:59:52.718Z,3.10
2018-02-14T23:02:20.976Z,3.10
2018-02-14T23:04:48.441Z,3.00
2018-02-14T23:07:15.922Z,3.10
2018-02-14T23:09:43.386Z,3.10
2018-02-14T23:12:11.607Z,3.00
2018-02-14T23:14:39.074Z,3.00
2018-02-14T23:17:06.714Z,3.00
2018-02-14T23:19:34.174Z,3.00
2018-02-14T23:22:01.641Z,3.00
2018-02-14T23:24:29.098Z,3.00
2018-02-14T23:26:56.570Z,3.10
2018-02-14T23:29:24.025Z,3.10
2018-02-14T23:31:51.509Z,3.10
2018-02-14T23:34:19.742Z,3.10
2018-02-14T23:36:47.222Z,3.10
2018-02-14T23:39:14.683Z,3.10
2018-02-14T23:41:42.190Z,3.10
2018-02-14T23:44:09.698Z,3.00
2018-02-14T23:46:37.154Z,3.00
2018-02-14T23:49:05.105Z,3.00
2018-02-14T23:51:33.529Z,2.90
2018-02-14T23:54:01.366Z,2.90
2018-02-14T23:56:29.423Z,3.00
2018-02-14T23:58:57.291Z,2.90
